This is the latest recevied weather packets stored in our database for station/object SQ9PDE-13. If no packets are shown the sender has not sent any weather packets the latest 10 day(s).
| Time | Temp. | Humidity | Pressure | Rain* | Wind** | Luminosity | Snow |
|---|---|---|---|---|---|---|---|
| 1777815916 | 24.44° C | 32% | 1014.1 hPa | - | - | - | - |
| 1777815616 | 24.44° C | 31% | 1014.3 hPa | - | - | - | - |
| 1777815315 | 23.89° C | 32% | 1014.4 hPa | - | - | - | - |
| 1777815015 | 24.44° C | 32% | 1014.4 hPa | - | - | - | - |
| 1777814714 | 24.44° C | 31% | 1014.5 hPa | - | - | - | - |
| 1777814414 | 24.44° C | 32% | 1014.6 hPa | - | - | - | - |
| 1777814113 | 25° C | 32% | 1014.5 hPa | - | - | - | - |
| 1777813813 | 24.44° C | 32% | 1014.7 hPa | - | - | - | - |
| 1777813512 | 24.44° C | 33% | 1014.7 hPa | - | - | - | - |
| 1777813212 | 24.44° C | 33% | 1014.6 hPa | - | - | - | - |
| 1777812911 | 23.89° C | 34% | 1014.9 hPa | - | - | - | - |
| 1777812611 | 24.44° C | 33% | 1014.9 hPa | - | - | - | - |
| 1777812310 | 24.44° C | 32% | 1014.9 hPa | - | - | - | - |
| 1777812010 | 24.44° C | 33% | 1015 hPa | - | - | - | - |
| 1777811709 | 24.44° C | 34% | 1014.9 hPa | - | - | - | - |
| 1777811409 | 23.89° C | 33% | 1015 hPa | - | - | - | - |
| 1777811108 | 24.44° C | 33% | 1015 hPa | - | - | - | - |
| 1777810808 | 23.89° C | 33% | 1015.2 hPa | - | - | - | - |
| 1777810207 | 23.89° C | 33% | 1015.2 hPa | - | - | - | - |
| 1777809906 | 24.44° C | 34% | 1015.2 hPa | - | - | - | - |
| 1777809605 | 23.89° C | 34% | 1015.2 hPa | - | - | - | - |
| 1777809305 | 24.44° C | 34% | 1015.2 hPa | - | - | - | - |
| 1777809004 | 25° C | 34% | 1015.3 hPa | - | - | - | - |
| 1777808704 | 23.33° C | 36% | 1015.6 hPa | - | - | - | - |
| 1777808403 | 23.89° C | 35% | 1015.7 hPa | - | - | - | - |
* Rain since midnight (hover to see other rain measurements)
** Current wind speed in m/s (hover to see current wind gust speed)